Terminal Aerodrome Forecast
Issued by NWS Cleveland, OH

Current Version | Previous Version | Text Only | Print | Product List | Glossary On
Versions: 1 2 3 4 5 6 7 8 9 10 11 12 13 14 15 16 17 18 19 20 21 22 23
000
FTUS41 KCLE 302300
TAFMFD
TAF
KMFD 302340Z 0100/0124 34008KT P6SM SCT018 OVC028
      TEMPO 0104/0106 02004KT 4SM BR BKN010
     FM010600 03003KT 2SM BR BKN003
     FM010800 03002KT 1/2SM -DZ FG VV002
     FM011400 05003KT 4SM BR OVC008
     FM011600 07004KT P6SM BKN018=

USA.gov is the U.S. government's official web portal to all federal, state and local government web resources and services.